createdAt,value
2019-04-26T00:01:19.026Z,16.05
2019-04-26T00:03:50.846Z,15.87
2019-04-26T00:06:21.614Z,15.74
2019-04-26T00:08:56.607Z,15.71
2019-04-26T00:11:31.704Z,15.57
2019-04-26T00:14:16.281Z,15.61
2019-04-26T00:16:48.630Z,15.51
2019-04-26T00:19:19.128Z,15.58
2019-04-26T00:21:49.710Z,15.45
2019-04-26T00:24:21.402Z,15.08
2019-04-26T00:26:51.911Z,15.08
2019-04-26T00:29:22.370Z,15.07
2019-04-26T00:31:52.805Z,15.16
2019-04-26T00:34:23.327Z,15.11
2019-04-26T00:36:53.869Z,15.07
2019-04-26T00:39:25.077Z,14.96
2019-04-26T00:41:55.735Z,14.97
2019-04-26T00:44:27.549Z,14.71
2019-04-26T00:47:00.754Z,14.81
2019-04-26T00:49:43.084Z,14.91
2019-04-26T00:52:05.274Z,14.90
2019-04-26T00:54:35.820Z,14.83
2019-04-26T00:57:07.334Z,14.87
2019-04-26T00:59:39.151Z,14.92
2019-04-26T01:02:23.045Z,14.79
2019-04-26T01:04:53.457Z,14.83
2019-04-26T01:07:23.893Z,14.62
2019-04-26T01:09:54.311Z,14.57
2019-04-26T01:12:24.712Z,14.67
2019-04-26T01:14:55.242Z,14.58
2019-04-26T01:17:26.723Z,14.50
2019-04-26T01:19:58.606Z,14.48
2019-04-26T01:22:31.917Z,14.44
2019-04-26T01:25:04.176Z,14.49
2019-04-26T01:27:37.302Z,14.38
2019-04-26T01:30:10.057Z,14.37
2019-04-26T01:32:43.135Z,14.33
2019-04-26T01:35:13.601Z,14.28
2019-04-26T01:37:46.376Z,14.20
2019-04-26T01:40:18.445Z,14.23
2019-04-26T01:42:54.308Z,14.21
2019-04-26T01:45:32.089Z,14.11
2019-04-26T01:48:07.089Z,14.10
2019-04-26T01:50:37.866Z,14.21
2019-04-26T01:53:08.599Z,14.34
2019-04-26T01:55:39.055Z,14.21
2019-04-26T01:58:09.489Z,14.16
2019-04-26T02:00:59.172Z,14.21
2019-04-26T02:03:31.832Z,14.20
2019-04-26T02:06:02.486Z,14.16
2019-04-26T02:08:32.921Z,14.30
2019-04-26T02:11:03.610Z,14.34
2019-04-26T02:13:34.045Z,14.39
2019-04-26T02:16:04.922Z,14.34
2019-04-26T02:18:35.563Z,14.32
2019-04-26T02:21:18.407Z,14.33
2019-04-26T02:23:51.098Z,14.20
2019-04-26T02:26:35.112Z,14.18
2019-04-26T02:29:08.557Z,14.07
2019-04-26T02:31:40.830Z,14.05
2019-04-26T02:34:11.584Z,14.07
2019-04-26T02:36:57.347Z,13.99
2019-04-26T02:39:22.978Z,14.02
2019-04-26T02:41:56.782Z,14.01
2019-04-26T02:44:32.970Z,13.87
2019-04-26T02:47:24.206Z,13.89
2019-04-26T02:49:58.163Z,13.98
2019-04-26T02:52:47.910Z,13.86
2019-04-26T02:55:53.872Z,13.99
2019-04-26T02:58:29.435Z,13.99
2019-04-26T03:01:01.758Z,13.86
2019-04-26T03:03:34.370Z,13.92
2019-04-26T03:06:04.686Z,13.96
2019-04-26T03:08:39.351Z,13.88
2019-04-26T03:11:16.890Z,13.87
2019-04-26T03:13:49.581Z,14.04
2019-04-26T03:16:31.438Z,14.11
2019-04-26T03:19:09.685Z,14.17
2019-04-26T03:21:57.834Z,14.19
2019-04-26T03:24:32.960Z,14.18
2019-04-26T03:27:35.896Z,14.24
2019-04-26T03:30:22.800Z,14.36
2019-04-26T03:32:56.709Z,14.46
2019-04-26T03:35:56.391Z,14.38
2019-04-26T03:38:41.075Z,14.54
2019-04-26T03:41:36.297Z,14.57
2019-04-26T03:44:09.180Z,14.62
2019-04-26T03:46:51.283Z,14.73
2019-04-26T03:49:38.090Z,14.71
2019-04-26T03:52:21.857Z,14.80
2019-04-26T03:54:55.231Z,14.95
2019-04-26T03:57:36.922Z,14.98
2019-04-26T04:00:27.927Z,15.08
2019-04-26T04:03:29.693Z,15.14
2019-04-26T04:06:02.875Z,15.21
2019-04-26T04:08:42.950Z,15.32
2019-04-26T04:11:17.115Z,15.38
2019-04-26T04:13:56.291Z,15.26
2019-04-26T04:16:48.898Z,15.36
2019-04-26T04:20:01.214Z,15.49
2019-04-26T04:22:41.785Z,15.51
2019-04-26T04:25:15.567Z,15.57
2019-04-26T04:27:49.355Z,15.63
2019-04-26T04:30:40.014Z,15.68
2019-04-26T04:33:18.415Z,15.68
2019-04-26T04:35:52.917Z,15.79
2019-04-26T04:38:30.951Z,15.84
2019-04-26T04:41:11.518Z,15.94
2019-04-26T04:43:48.799Z,15.99
2019-04-26T04:46:43.846Z,16.22
2019-04-26T04:49:55.169Z,16.46
2019-04-26T04:52:41.322Z,16.34
2019-04-26T04:55:15.448Z,16.44
2019-04-26T04:58:09.656Z,16.61
2019-04-26T05:01:05.506Z,16.68
2019-04-26T05:03:56.921Z,16.69
2019-04-26T05:06:31.826Z,16.81
2019-04-26T05:09:06.919Z,16.97
2019-04-26T05:11:45.949Z,17.23
2019-04-26T05:14:45.260Z,17.49
2019-04-26T05:17:34.449Z,17.65
2019-04-26T05:20:25.742Z,17.96
2019-04-26T05:23:19.783Z,18.18
2019-04-26T05:26:24.545Z,18.38
2019-04-26T05:29:26.097Z,18.60
2019-04-26T05:32:28.896Z,18.74
2019-04-26T05:35:46.235Z,18.80
2019-04-26T05:38:38.732Z,19.01
2019-04-26T05:41:35.836Z,19.17
2019-04-26T05:44:16.636Z,19.18
2019-04-26T05:47:23.009Z,18.98
2019-04-26T05:50:16.026Z,19.00
2019-04-26T05:52:57.235Z,19.09
2019-04-26T05:55:41.062Z,19.48
2019-04-26T05:58:44.432Z,19.75
2019-04-26T06:01:32.803Z,19.66
2019-04-26T06:04:25.437Z,19.61
2019-04-26T06:07:03.082Z,19.66
2019-04-26T06:09:54.441Z,19.96
2019-04-26T06:12:29.442Z,20.16
2019-04-26T06:15:21.819Z,20.10
2019-04-26T06:18:11.597Z,20.03
2019-04-26T06:20:47.736Z,20.23
2019-04-26T06:23:23.946Z,20.41
2019-04-26T06:26:31.851Z,20.85
2019-04-26T06:29:13.807Z,20.92
2019-04-26T06:32:01.237Z,20.81
2019-04-26T06:34:59.758Z,21.15
2019-04-26T06:37:55.351Z,21.22
2019-04-26T06:40:28.773Z,21.34
2019-04-26T06:43:12.330Z,21.42
2019-04-26T06:46:00.495Z,21.70
2019-04-26T06:48:41.500Z,21.95
2019-04-26T06:51:24.484Z,22.05
2019-04-26T06:54:14.247Z,22.05
2019-04-26T06:56:49.364Z,21.95
2019-04-26T06:59:35.791Z,22.17
2019-04-26T07:02:01.533Z,22.05
2019-04-26T07:04:44.049Z,22.22
2019-04-26T07:07:30.019Z,22.29
2019-04-26T07:10:04.048Z,22.21
2019-04-26T07:12:59.979Z,22.44
2019-04-26T07:15:50.336Z,22.56
2019-04-26T07:18:43.833Z,22.56
2019-04-26T07:21:23.530Z,22.67
2019-04-26T07:24:22.273Z,22.57
2019-04-26T07:27:05.109Z,22.74
2019-04-26T07:30:07.333Z,22.80
2019-04-26T07:33:10.956Z,22.95
2019-04-26T07:36:09.863Z,23.10
2019-04-26T07:39:19.891Z,23.38
2019-04-26T07:42:19.982Z,23.46
2019-04-26T07:45:02.242Z,23.72
2019-04-26T07:48:18.267Z,23.75
2019-04-26T07:50:54.345Z,23.72
2019-04-26T07:53:44.403Z,23.98
2019-04-26T07:56:49.639Z,24.15
2019-04-26T07:59:50.306Z,23.72
2019-04-26T08:02:34.027Z,23.88
2019-04-26T08:05:15.532Z,23.65
2019-04-26T08:07:53.301Z,23.90
2019-04-26T08:10:25.305Z,24.31
2019-04-26T08:13:05.950Z,24.06
2019-04-26T08:15:53.255Z,24.51
2019-04-26T08:18:30.803Z,24.59
2019-04-26T08:21:20.728Z,24.64
2019-04-26T08:23:56.457Z,24.79
2019-04-26T08:29:34.656Z,24.89
2019-04-26T08:32:11.321Z,24.93
2019-04-26T08:34:48.263Z,24.91
2019-04-26T08:38:00.575Z,25.22
2019-04-26T08:40:40.481Z,25.05
2019-04-26T08:43:30.858Z,25.10
2019-04-26T08:46:16.166Z,25.11
2019-04-26T08:49:17.812Z,25.63
2019-04-26T08:51:57.531Z,25.31
2019-04-26T08:54:32.746Z,25.02
2019-04-26T08:57:07.205Z,25.42
2019-04-26T08:59:40.852Z,25.76
2019-04-26T09:02:21.971Z,25.78
2019-04-26T09:04:59.817Z,25.91
2019-04-26T09:07:36.993Z,25.68
2019-04-26T09:10:11.461Z,25.94
2019-04-26T09:12:44.785Z,26.10
2019-04-26T09:15:21.422Z,26.44
2019-04-26T09:17:52.767Z,26.29
2019-04-26T09:20:28.948Z,25.81
2019-04-26T09:23:12.235Z,25.85
2019-04-26T09:25:59.405Z,25.96
2019-04-26T09:28:47.693Z,25.89
2019-04-26T09:31:21.131Z,26.23
2019-04-26T09:33:55.875Z,26.60
2019-04-26T09:36:30.531Z,26.75
2019-04-26T09:39:03.843Z,26.43
2019-04-26T09:41:33.789Z,26.54
2019-04-26T09:44:22.119Z,26.90
2019-04-26T09:46:54.436Z,26.92
2019-04-26T09:49:29.331Z,27.10
2019-04-26T09:52:00.780Z,27.24
2019-04-26T09:54:32.205Z,26.67
2019-04-26T09:57:02.753Z,26.18
2019-04-26T09:59:36.332Z,26.84
2019-04-26T10:02:06.294Z,27.23
2019-04-26T10:04:38.829Z,26.91
2019-04-26T10:07:14.348Z,27.44
2019-04-26T10:09:46.268Z,27.50
2019-04-26T10:12:34.196Z,27.70
2019-04-26T10:15:26.799Z,27.69
2019-04-26T10:17:55.760Z,27.45
2019-04-26T10:20:26.367Z,27.16
2019-04-26T10:22:56.806Z,27.06
2019-04-26T10:25:27.373Z,27.10
2019-04-26T10:28:01.073Z,26.51
2019-04-26T10:30:31.553Z,26.32
2019-04-26T10:33:03.618Z,26.78
2019-04-26T10:35:34.855Z,26.63
2019-04-26T10:38:05.669Z,26.57
2019-04-26T10:40:43.121Z,27.14
2019-04-26T10:43:13.841Z,27.41
2019-04-26T10:45:45.938Z,27.31
2019-04-26T10:48:16.578Z,27.35
2019-04-26T10:50:48.162Z,26.83
2019-04-26T10:53:20.174Z,27.27
2019-04-26T10:55:55.830Z,27.57
2019-04-26T10:58:39.692Z,28.02
2019-04-26T11:01:12.104Z,27.48
2019-04-26T11:03:43.640Z,28.05
2019-04-26T11:06:27.765Z,28.14
2019-04-26T11:08:59.462Z,28.10
2019-04-26T11:11:30.187Z,28.12
2019-04-26T11:14:01.130Z,28.35
2019-04-26T11:19:08.221Z,28.55
2019-04-26T11:21:39.105Z,29.18
2019-04-26T11:24:11.337Z,29.26
2019-04-26T11:26:43.363Z,28.91
2019-04-26T11:29:14.477Z,28.35
2019-04-26T11:31:46.720Z,28.26
2019-04-26T11:34:19.241Z,28.39
2019-04-26T11:36:50.434Z,28.74
2019-04-26T11:39:22.706Z,27.95
2019-04-26T11:41:57.284Z,28.73
2019-04-26T11:44:28.554Z,29.10
2019-04-26T11:47:03.269Z,28.48
2019-04-26T11:49:37.384Z,27.79
2019-04-26T11:52:07.626Z,27.93
2019-04-26T11:54:38.431Z,28.21
2019-04-26T11:57:12.138Z,28.63
2019-04-26T11:59:44.219Z,29.00
2019-04-26T12:02:19.768Z,29.23
2019-04-26T12:04:53.755Z,29.90
2019-04-26T12:07:28.291Z,30.22
2019-04-26T12:10:00.362Z,30.43
2019-04-26T12:12:32.419Z,30.42
2019-04-26T12:15:08.557Z,30.20
2019-04-26T12:17:40.567Z,30.41
2019-04-26T12:20:11.147Z,29.97
2019-04-26T12:22:43.403Z,28.93
2019-04-26T12:28:07.338Z,28.05
2019-04-26T12:30:41.192Z,27.86
2019-04-26T12:33:13.239Z,28.77
2019-04-26T12:35:46.122Z,28.38
2019-04-26T12:38:20.243Z,28.37
2019-04-26T12:40:58.394Z,28.10
2019-04-26T12:43:28.902Z,27.60
2019-04-26T12:46:17.586Z,28.14
2019-04-26T12:48:57.245Z,28.25
2019-04-26T12:51:27.950Z,28.27
2019-04-26T12:54:08.082Z,28.45
2019-04-26T12:56:36.664Z,28.74
2019-04-26T12:59:08.498Z,29.08
2019-04-26T13:01:46.370Z,28.94
2019-04-26T13:04:15.837Z,28.00
2019-04-26T13:06:58.218Z,28.27
2019-04-26T13:09:29.731Z,28.41
2019-04-26T13:12:02.092Z,28.41
2019-04-26T13:14:55.341Z,27.96
2019-04-26T13:18:07.219Z,27.68
2019-04-26T13:20:50.640Z,27.51
2019-04-26T13:23:21.455Z,27.24
2019-04-26T13:25:55.375Z,27.51
2019-04-26T13:28:28.220Z,27.90
2019-04-26T13:31:02.359Z,27.44
2019-04-26T13:33:39.554Z,27.05
2019-04-26T13:36:13.330Z,26.77
2019-04-26T13:38:45.187Z,26.99
2019-04-26T13:41:28.007Z,27.55
2019-04-26T13:44:14.324Z,27.69
2019-04-26T13:46:48.357Z,27.48
2019-04-26T13:49:27.527Z,28.08
2019-04-26T13:51:55.902Z,27.07
2019-04-26T13:54:29.214Z,27.04
2019-04-26T13:57:06.144Z,26.55
2019-04-26T13:59:38.921Z,26.74
2019-04-26T14:02:17.482Z,26.93
2019-04-26T14:04:58.519Z,27.13
2019-04-26T14:07:30.670Z,26.62
2019-04-26T14:10:03.120Z,26.18
2019-04-26T14:12:55.545Z,26.06
2019-04-26T14:15:51.653Z,25.69
2019-04-26T14:18:23.670Z,25.66
2019-04-26T14:20:58.979Z,25.67
2019-04-26T14:23:56.499Z,25.55
2019-04-26T14:26:39.827Z,25.44
2019-04-26T14:29:08.454Z,25.32
2019-04-26T14:31:39.166Z,24.83
2019-04-26T14:34:31.532Z,24.83
2019-04-26T14:37:15.346Z,24.78
2019-04-26T14:39:59.056Z,24.42
2019-04-26T14:42:48.455Z,24.44
2019-04-26T14:45:24.152Z,24.39
2019-04-26T14:48:20.070Z,24.18
2019-04-26T14:50:53.153Z,24.04
2019-04-26T14:53:23.515Z,24.00
2019-04-26T14:55:56.809Z,24.09
2019-04-26T14:58:32.108Z,23.80
2019-04-26T15:01:05.166Z,23.86
2019-04-26T15:03:59.299Z,23.90
2019-04-26T15:06:33.221Z,23.87
2019-04-26T15:09:16.823Z,23.86
2019-04-26T15:11:37.810Z,23.68
2019-04-26T15:14:23.806Z,23.59
2019-04-26T15:16:54.299Z,23.51
2019-04-26T15:19:24.919Z,23.54
2019-04-26T15:21:58.069Z,23.47
2019-04-26T15:24:30.158Z,23.46
2019-04-26T15:27:01.814Z,23.33
2019-04-26T15:29:33.024Z,23.34
2019-04-26T15:32:05.317Z,23.06
2019-04-26T15:34:35.772Z,23.12
2019-04-26T15:37:06.444Z,23.13
2019-04-26T15:39:56.825Z,23.14
2019-04-26T15:42:42.263Z,22.97
2019-04-26T15:45:14.337Z,23.02
2019-04-26T15:47:46.545Z,23.05
2019-04-26T15:50:18.631Z,22.88
2019-04-26T15:52:49.165Z,22.82
2019-04-26T15:55:19.632Z,22.85
2019-04-26T15:57:50.065Z,22.77
2019-04-26T16:00:22.455Z,22.68
2019-04-26T16:02:54.601Z,22.67
2019-04-26T16:05:29.421Z,22.56
2019-04-26T16:07:57.366Z,22.41
2019-04-26T16:10:33.533Z,22.29
2019-04-26T16:13:16.199Z,22.23
2019-04-26T16:15:33.769Z,22.10
2019-04-26T16:18:04.395Z,22.08
2019-04-26T16:20:37.648Z,22.00
2019-04-26T16:23:07.446Z,21.94
2019-04-26T16:25:39.184Z,21.80
2019-04-26T16:28:26.145Z,21.75
2019-04-26T16:31:06.634Z,21.68
2019-04-26T16:33:40.566Z,21.56
2019-04-26T16:36:11.021Z,21.50
2019-04-26T16:38:41.451Z,21.43
2019-04-26T16:41:11.929Z,21.34
2019-04-26T16:43:52.218Z,21.32
2019-04-26T16:46:20.070Z,21.22
2019-04-26T16:48:46.664Z,21.10
2019-04-26T16:51:17.118Z,21.08
2019-04-26T16:54:03.746Z,21.03
2019-04-26T16:56:25.941Z,21.00
2019-04-26T16:58:54.737Z,20.92
2019-04-26T17:01:24.045Z,20.84
2019-04-26T17:03:54.895Z,20.78
2019-04-26T17:06:25.341Z,20.69
2019-04-26T17:09:01.002Z,20.72
2019-04-26T17:11:30.245Z,20.62
2019-04-26T17:14:04.325Z,20.52
2019-04-26T17:16:34.689Z,20.49
2019-04-26T17:19:04.574Z,20.54
2019-04-26T17:21:36.645Z,20.44
2019-04-26T17:24:23.520Z,20.44
2019-04-26T17:26:58.602Z,20.40
2019-04-26T17:29:29.020Z,20.37
2019-04-26T17:32:02.539Z,20.22
2019-04-26T17:34:33.629Z,20.23
2019-04-26T17:37:07.893Z,20.12
2019-04-26T17:39:36.340Z,20.13
2019-04-26T17:42:06.841Z,20.03
2019-04-26T17:44:37.292Z,19.94
2019-04-26T17:47:08.503Z,19.94
2019-04-26T17:49:42.340Z,19.87
2019-04-26T17:52:11.741Z,19.76
2019-04-26T17:54:52.477Z,19.77
2019-04-26T17:57:14.829Z,19.73
2019-04-26T17:59:48.951Z,19.68
2019-04-26T18:02:25.889Z,19.58
2019-04-26T18:04:59.040Z,19.57
2019-04-26T18:07:39.802Z,19.51
2019-04-26T18:09:56.991Z,19.29
2019-04-26T18:12:27.016Z,19.11
2019-04-26T18:15:00.129Z,19.03
2019-04-26T18:17:38.912Z,19.03
2019-04-26T18:20:23.513Z,18.98
2019-04-26T18:22:55.568Z,19.03
2019-04-26T18:25:26.186Z,18.95
2019-04-26T18:27:56.680Z,18.98
2019-04-26T18:30:27.393Z,18.89
2019-04-26T18:32:57.837Z,18.81
2019-04-26T18:35:28.271Z,18.80
2019-04-26T18:37:58.739Z,18.67
2019-04-26T18:40:29.157Z,18.35
2019-04-26T18:42:59.636Z,18.28
2019-04-26T18:45:30.240Z,18.10
2019-04-26T18:48:01.938Z,18.03
2019-04-26T18:50:36.381Z,18.03
2019-04-26T18:53:15.333Z,18.00
2019-04-26T18:55:47.342Z,17.96
2019-04-26T18:58:17.831Z,17.81
2019-04-26T19:00:48.247Z,17.74
2019-04-26T19:03:18.754Z,17.58
2019-04-26T19:05:49.455Z,17.66
2019-04-26T19:08:20.822Z,17.61
2019-04-26T19:10:59.213Z,17.46
2019-04-26T19:13:32.134Z,17.38
2019-04-26T19:16:03.678Z,17.35
2019-04-26T19:18:45.044Z,17.29
2019-04-26T19:21:25.862Z,17.27
2019-04-26T19:24:05.852Z,17.14
2019-04-26T19:26:32.996Z,16.99
2019-04-26T19:29:02.113Z,16.98
2019-04-26T19:31:32.850Z,16.95
2019-04-26T19:34:03.333Z,16.84
2019-04-26T19:36:33.750Z,16.83
2019-04-26T19:39:05.666Z,16.81
2019-04-26T19:41:36.103Z,16.68
2019-04-26T19:44:06.665Z,16.74
2019-04-26T19:46:53.640Z,16.74
2019-04-26T19:49:40.332Z,16.77
2019-04-26T19:52:15.008Z,16.78
2019-04-26T19:54:47.038Z,16.74
2019-04-26T19:57:39.262Z,16.80
2019-04-26T20:00:09.877Z,16.75
2019-04-26T20:02:41.844Z,16.75
2019-04-26T20:05:12.569Z,16.75
2019-04-26T20:07:43.844Z,16.75
2019-04-26T20:10:14.292Z,16.78
2019-04-26T20:12:44.717Z,16.82
2019-04-26T20:15:25.448Z,16.89
2019-04-26T20:17:52.388Z,16.98
2019-04-26T20:20:23.222Z,16.93
2019-04-26T20:22:51.584Z,16.91
2019-04-26T20:25:22.423Z,16.87
2019-04-26T20:27:53.762Z,16.96
2019-04-26T20:30:32.677Z,16.94
2019-04-26T20:33:03.199Z,16.96
2019-04-26T20:35:33.651Z,16.91
2019-04-26T20:38:04.892Z,16.91
2019-04-26T20:40:35.413Z,16.87
2019-04-26T20:43:07.054Z,16.87
2019-04-26T20:45:41.447Z,16.85
2019-04-26T20:48:10.050Z,16.79
2019-04-26T20:50:41.331Z,16.77
2019-04-26T20:53:12.128Z,16.86
2019-04-26T20:55:42.839Z,16.78
2019-04-26T20:58:13.271Z,16.76
2019-04-26T21:00:53.799Z,16.75
2019-04-26T21:03:23.869Z,16.73
2019-04-26T21:05:52.829Z,16.76
2019-04-26T21:08:25.750Z,16.73
2019-04-26T21:10:56.041Z,16.74
2019-04-26T21:13:30.788Z,16.64
2019-04-26T21:16:03.443Z,16.61
2019-04-26T21:18:33.764Z,16.65
2019-04-26T21:21:05.816Z,16.54
2019-04-26T21:23:39.974Z,16.49
2019-04-26T21:26:16.578Z,16.41
2019-04-26T21:28:51.967Z,16.42
2019-04-26T21:31:25.488Z,16.37
2019-04-26T21:34:07.828Z,16.39
2019-04-26T21:36:49.148Z,16.34
2019-04-26T21:39:23.882Z,16.30
2019-04-26T21:41:55.927Z,16.26
2019-04-26T21:44:26.370Z,16.26
2019-04-26T21:46:58.954Z,16.20
2019-04-26T21:49:28.958Z,16.16
2019-04-26T21:51:59.420Z,16.21
2019-04-26T21:54:29.846Z,16.17
2019-04-26T21:57:00.313Z,16.03
2019-04-26T21:59:35.144Z,15.99
2019-04-26T22:02:03.374Z,15.96
2019-04-26T22:04:37.576Z,15.88
2019-04-26T22:07:07.796Z,15.78
2019-04-26T22:09:45.556Z,15.68
2019-04-26T22:12:16.617Z,15.71
2019-04-26T22:14:50.743Z,15.74
2019-04-26T22:17:28.071Z,15.72
2019-04-26T22:20:12.497Z,15.67
2019-04-26T22:22:41.466Z,15.62
2019-04-26T22:25:12.915Z,15.68
2019-04-26T22:27:43.758Z,15.61
2019-04-26T22:30:18.566Z,15.52
2019-04-26T22:32:54.675Z,15.51
2019-04-26T22:35:21.680Z,15.53
2019-04-26T22:37:53.739Z,15.52
2019-04-26T22:40:24.223Z,15.44
2019-04-26T22:42:56.256Z,15.34
2019-04-26T22:45:34.433Z,15.36
2019-04-26T22:48:11.545Z,15.33
2019-04-26T22:50:41.275Z,15.20
2019-04-26T22:53:12.047Z,15.08
2019-04-26T22:55:43.619Z,15.07
2019-04-26T22:58:14.145Z,15.01
2019-04-26T23:00:44.742Z,14.96
2019-04-26T23:03:16.623Z,14.91
2019-04-26T23:05:47.075Z,14.89
2019-04-26T23:08:17.535Z,14.84
2019-04-26T23:10:52.993Z,14.82
2019-04-26T23:13:33.882Z,14.81
2019-04-26T23:16:11.118Z,14.89
2019-04-26T23:18:57.810Z,14.74
2019-04-26T23:21:29.931Z,14.79
2019-04-26T23:24:00.412Z,14.63
2019-04-26T23:26:30.819Z,14.69
2019-04-26T23:29:01.322Z,14.63
2019-04-26T23:31:33.363Z,14.53
2019-04-26T23:34:04.081Z,14.50
2019-04-26T23:36:34.931Z,14.35
2019-04-26T23:39:07.678Z,14.16
2019-04-26T23:41:41.675Z,13.95
2019-04-26T23:47:20.556Z,13.66
2019-04-26T23:49:43.394Z,13.47
2019-04-26T23:52:14.566Z,13.39
2019-04-26T23:54:46.390Z,13.23
2019-04-26T23:57:16.933Z,13.08
2019-04-26T23:59:51.043Z,13.00
